sensor_id;sensor_type;location;lat;lon;timestamp;P1;durP1;ratioP1;P2;durP2;ratioP2
24277;SDS011;12394;42.692;23.314;2023-08-21T00:01:24;4.63;;;3.50;;
24277;SDS011;12394;42.692;23.314;2023-08-21T00:03:50;3.20;;;2.77;;
24277;SDS011;12394;42.692;23.314;2023-08-21T00:06:15;3.63;;;2.63;;
24277;SDS011;12394;42.692;23.314;2023-08-21T00:08:41;5.10;;;2.80;;
24277;SDS011;12394;42.692;23.314;2023-08-21T00:11:06;4.03;;;2.90;;
24277;SDS011;12394;42.692;23.314;2023-08-21T00:13:31;3.00;;;2.70;;
24277;SDS011;12394;42.692;23.314;2023-08-21T00:15:57;4.33;;;3.10;;
24277;SDS011;12394;42.692;23.314;2023-08-21T00:18:22;3.60;;;3.27;;
24277;SDS011;12394;42.692;23.314;2023-08-21T00:20:48;3.13;;;2.77;;
24277;SDS011;12394;42.692;23.314;2023-08-21T00:23:13;3.63;;;2.63;;
24277;SDS011;12394;42.692;23.314;2023-08-21T00:25:39;5.27;;;3.37;;
24277;SDS011;12394;42.692;23.314;2023-08-21T00:28:04;4.50;;;3.00;;
24277;SDS011;12394;42.692;23.314;2023-08-21T00:30:30;3.80;;;3.03;;
24277;SDS011;12394;42.692;23.314;2023-08-21T00:32:55;3.87;;;2.87;;
24277;SDS011;12394;42.692;23.314;2023-08-21T00:35:21;3.27;;;2.87;;
24277;SDS011;12394;42.692;23.314;2023-08-21T00:37:46;4.20;;;3.07;;
24277;SDS011;12394;42.692;23.314;2023-08-21T00:40:12;3.90;;;2.90;;
24277;SDS011;12394;42.692;23.314;2023-08-21T00:42:37;4.77;;;3.23;;
24277;SDS011;12394;42.692;23.314;2023-08-21T00:45:03;4.53;;;3.20;;
24277;SDS011;12394;42.692;23.314;2023-08-21T00:47:29;5.37;;;2.93;;
24277;SDS011;12394;42.692;23.314;2023-08-21T00:49:55;3.33;;;2.87;;
24277;SDS011;12394;42.692;23.314;2023-08-21T00:52:20;4.47;;;3.10;;
24277;SDS011;12394;42.692;23.314;2023-08-21T00:54:46;5.17;;;3.20;;
24277;SDS011;12394;42.692;23.314;2023-08-21T00:57:12;4.03;;;3.37;;
24277;SDS011;12394;42.692;23.314;2023-08-21T00:59:37;3.67;;;2.97;;
24277;SDS011;12394;42.692;23.314;2023-08-21T01:02:03;2.93;;;2.63;;
24277;SDS011;12394;42.692;23.314;2023-08-21T01:04:29;4.13;;;3.23;;
24277;SDS011;12394;42.692;23.314;2023-08-21T01:06:56;6.97;;;3.33;;
24277;SDS011;12394;42.692;23.314;2023-08-21T01:09:33;3.77;;;3.30;;
24277;SDS011;12394;42.692;23.314;2023-08-21T01:15:10;5.20;;;2.60;;
24277;SDS011;12394;42.692;23.314;2023-08-21T01:17:37;4.20;;;3.03;;
24277;SDS011;12394;42.692;23.314;2023-08-21T01:20:04;4.00;;;2.90;;
24277;SDS011;12394;42.692;23.314;2023-08-21T01:22:37;3.57;;;2.97;;
24277;SDS011;12394;42.692;23.314;2023-08-21T01:25:11;3.83;;;3.03;;
24277;SDS011;12394;42.692;23.314;2023-08-21T01:27:37;4.17;;;3.40;;
24277;SDS011;12394;42.692;23.314;2023-08-21T01:30:07;4.03;;;3.03;;
24277;SDS011;12394;42.692;23.314;2023-08-21T01:35:33;3.73;;;3.20;;
24277;SDS011;12394;42.692;23.314;2023-08-21T01:38:00;4.43;;;3.10;;
24277;SDS011;12394;42.692;23.314;2023-08-21T01:40:27;4.03;;;3.33;;
24277;SDS011;12394;42.692;23.314;2023-08-21T01:42:53;4.00;;;2.93;;
24277;SDS011;12394;42.692;23.314;2023-08-21T01:45:19;3.37;;;2.97;;
24277;SDS011;12394;42.692;23.314;2023-08-21T01:47:44;3.90;;;3.43;;
24277;SDS011;12394;42.692;23.314;2023-08-21T01:50:10;5.27;;;3.90;;
24277;SDS011;12394;42.692;23.314;2023-08-21T01:52:35;3.27;;;2.97;;
24277;SDS011;12394;42.692;23.314;2023-08-21T01:55:01;3.37;;;3.07;;
24277;SDS011;12394;42.692;23.314;2023-08-21T01:57:26;4.10;;;3.03;;
24277;SDS011;12394;42.692;23.314;2023-08-21T01:59:51;4.60;;;3.13;;
24277;SDS011;12394;42.692;23.314;2023-08-21T02:02:17;7.17;;;3.00;;
24277;SDS011;12394;42.692;23.314;2023-08-21T02:04:42;5.27;;;3.20;;
24277;SDS011;12394;42.692;23.314;2023-08-21T02:07:08;4.40;;;3.67;;
24277;SDS011;12394;42.692;23.314;2023-08-21T02:09:33;3.87;;;3.33;;
24277;SDS011;12394;42.692;23.314;2023-08-21T02:11:59;5.13;;;3.13;;
24277;SDS011;12394;42.692;23.314;2023-08-21T02:14:24;5.07;;;3.20;;
24277;SDS011;12394;42.692;23.314;2023-08-21T02:16:50;4.37;;;3.13;;
24277;SDS011;12394;42.692;23.314;2023-08-21T02:19:15;4.43;;;3.43;;
24277;SDS011;12394;42.692;23.314;2023-08-21T02:21:41;4.33;;;3.30;;
24277;SDS011;12394;42.692;23.314;2023-08-21T02:24:06;4.33;;;3.30;;
24277;SDS011;12394;42.692;23.314;2023-08-21T02:26:31;3.73;;;3.30;;
24277;SDS011;12394;42.692;23.314;2023-08-21T02:28:57;4.53;;;3.20;;
24277;SDS011;12394;42.692;23.314;2023-08-21T02:31:23;4.00;;;3.37;;
24277;SDS011;12394;42.692;23.314;2023-08-21T02:33:48;3.20;;;2.90;;
24277;SDS011;12394;42.692;23.314;2023-08-21T02:36:15;5.07;;;3.93;;
24277;SDS011;12394;42.692;23.314;2023-08-21T02:38:41;3.70;;;3.27;;
24277;SDS011;12394;42.692;23.314;2023-08-21T02:41:06;4.00;;;3.60;;
24277;SDS011;12394;42.692;23.314;2023-08-21T02:43:32;5.93;;;4.03;;
24277;SDS011;12394;42.692;23.314;2023-08-21T02:45:57;4.30;;;3.43;;
24277;SDS011;12394;42.692;23.314;2023-08-21T02:48:23;4.43;;;3.50;;
24277;SDS011;12394;42.692;23.314;2023-08-21T02:50:48;4.80;;;3.53;;
24277;SDS011;12394;42.692;23.314;2023-08-21T02:53:14;5.93;;;3.37;;
24277;SDS011;12394;42.692;23.314;2023-08-21T02:55:39;13.43;;;3.73;;
24277;SDS011;12394;42.692;23.314;2023-08-21T02:58:05;4.47;;;3.20;;
24277;SDS011;12394;42.692;23.314;2023-08-21T03:02:59;4.97;;;3.93;;
24277;SDS011;12394;42.692;23.314;2023-08-21T03:05:25;5.97;;;3.40;;
24277;SDS011;12394;42.692;23.314;2023-08-21T03:07:50;4.80;;;3.37;;
24277;SDS011;12394;42.692;23.314;2023-08-21T03:10:16;3.53;;;3.10;;
24277;SDS011;12394;42.692;23.314;2023-08-21T03:12:41;4.63;;;3.40;;
24277;SDS011;12394;42.692;23.314;2023-08-21T03:15:06;5.47;;;3.70;;
24277;SDS011;12394;42.692;23.314;2023-08-21T03:17:32;4.10;;;3.70;;
24277;SDS011;12394;42.692;23.314;2023-08-21T03:19:58;6.77;;;4.03;;
24277;SDS011;12394;42.692;23.314;2023-08-21T03:22:23;5.67;;;3.97;;
24277;SDS011;12394;42.692;23.314;2023-08-21T03:24:49;4.93;;;3.43;;
24277;SDS011;12394;42.692;23.314;2023-08-21T03:27:18;4.70;;;3.73;;
24277;SDS011;12394;42.692;23.314;2023-08-21T03:29:43;3.70;;;3.30;;
24277;SDS011;12394;42.692;23.314;2023-08-21T03:32:17;4.83;;;3.57;;
24277;SDS011;12394;42.692;23.314;2023-08-21T03:34:43;4.17;;;3.77;;
24277;SDS011;12394;42.692;23.314;2023-08-21T03:37:09;4.43;;;3.33;;
24277;SDS011;12394;42.692;23.314;2023-08-21T03:39:34;4.20;;;3.80;;
24277;SDS011;12394;42.692;23.314;2023-08-21T03:42:00;5.10;;;3.90;;
24277;SDS011;12394;42.692;23.314;2023-08-21T03:44:26;9.70;;;4.40;;
24277;SDS011;12394;42.692;23.314;2023-08-21T03:46:52;4.37;;;3.30;;
24277;SDS011;12394;42.692;23.314;2023-08-21T03:49:17;4.77;;;3.73;;
24277;SDS011;12394;42.692;23.314;2023-08-21T03:51:42;5.07;;;3.97;;
24277;SDS011;12394;42.692;23.314;2023-08-21T03:54:08;4.57;;;3.67;;
24277;SDS011;12394;42.692;23.314;2023-08-21T03:56:34;5.37;;;3.73;;
24277;SDS011;12394;42.692;23.314;2023-08-21T03:58:59;4.77;;;3.60;;
24277;SDS011;12394;42.692;23.314;2023-08-21T04:01:25;5.00;;;3.53;;
24277;SDS011;12394;42.692;23.314;2023-08-21T04:03:51;4.60;;;3.40;;
24277;SDS011;12394;42.692;23.314;2023-08-21T04:06:16;4.70;;;3.47;;
24277;SDS011;12394;42.692;23.314;2023-08-21T04:08:41;4.27;;;3.63;;
24277;SDS011;12394;42.692;23.314;2023-08-21T04:11:07;6.30;;;4.20;;
24277;SDS011;12394;42.692;23.314;2023-08-21T04:13:32;5.23;;;3.63;;
24277;SDS011;12394;42.692;23.314;2023-08-21T04:15:58;5.17;;;4.23;;
24277;SDS011;12394;42.692;23.314;2023-08-21T04:18:23;4.57;;;3.80;;
24277;SDS011;12394;42.692;23.314;2023-08-21T04:20:49;5.70;;;4.20;;
24277;SDS011;12394;42.692;23.314;2023-08-21T04:23:15;5.40;;;3.90;;
24277;SDS011;12394;42.692;23.314;2023-08-21T04:25:40;4.93;;;3.80;;
24277;SDS011;12394;42.692;23.314;2023-08-21T04:28:05;6.60;;;4.30;;
24277;SDS011;12394;42.692;23.314;2023-08-21T04:30:32;7.17;;;4.30;;
24277;SDS011;12394;42.692;23.314;2023-08-21T04:32:58;5.60;;;4.00;;
24277;SDS011;12394;42.692;23.314;2023-08-21T04:35:24;5.57;;;4.07;;
24277;SDS011;12394;42.692;23.314;2023-08-21T04:37:49;5.03;;;3.93;;
24277;SDS011;12394;42.692;23.314;2023-08-21T04:40:15;4.30;;;3.53;;
24277;SDS011;12394;42.692;23.314;2023-08-21T04:42:42;4.30;;;3.90;;
24277;SDS011;12394;42.692;23.314;2023-08-21T04:45:09;5.30;;;4.07;;
24277;SDS011;12394;42.692;23.314;2023-08-21T04:47:34;4.50;;;3.83;;
24277;SDS011;12394;42.692;23.314;2023-08-21T04:50:00;5.07;;;3.87;;
24277;SDS011;12394;42.692;23.314;2023-08-21T04:52:25;4.90;;;3.50;;
24277;SDS011;12394;42.692;23.314;2023-08-21T04:54:51;4.53;;;3.07;;
24277;SDS011;12394;42.692;23.314;2023-08-21T04:57:17;5.50;;;4.13;;
24277;SDS011;12394;42.692;23.314;2023-08-21T04:59:45;6.60;;;4.23;;
24277;SDS011;12394;42.692;23.314;2023-08-21T05:02:11;5.37;;;4.13;;
24277;SDS011;12394;42.692;23.314;2023-08-21T05:04:37;5.80;;;4.10;;
24277;SDS011;12394;42.692;23.314;2023-08-21T05:07:03;5.77;;;4.40;;
24277;SDS011;12394;42.692;23.314;2023-08-21T05:09:29;5.20;;;3.60;;
24277;SDS011;12394;42.692;23.314;2023-08-21T05:11:55;6.40;;;3.90;;
24277;SDS011;12394;42.692;23.314;2023-08-21T05:14:21;4.73;;;3.90;;
24277;SDS011;12394;42.692;23.314;2023-08-21T05:16:48;5.97;;;3.50;;
24277;SDS011;12394;42.692;23.314;2023-08-21T05:19:14;4.20;;;3.53;;
24277;SDS011;12394;42.692;23.314;2023-08-21T05:21:39;5.00;;;3.27;;
24277;SDS011;12394;42.692;23.314;2023-08-21T05:24:04;4.70;;;3.60;;
24277;SDS011;12394;42.692;23.314;2023-08-21T05:26:30;4.27;;;3.73;;
24277;SDS011;12394;42.692;23.314;2023-08-21T05:28:56;5.73;;;2.77;;
24277;SDS011;12394;42.692;23.314;2023-08-21T05:31:21;3.87;;;3.00;;
24277;SDS011;12394;42.692;23.314;2023-08-21T05:33:47;4.60;;;3.30;;
24277;SDS011;12394;42.692;23.314;2023-08-21T05:36:12;3.73;;;3.27;;
24277;SDS011;12394;42.692;23.314;2023-08-21T05:38:38;4.43;;;3.60;;
24277;SDS011;12394;42.692;23.314;2023-08-21T05:41:03;3.97;;;3.40;;
24277;SDS011;12394;42.692;23.314;2023-08-21T05:43:28;5.93;;;3.63;;
24277;SDS011;12394;42.692;23.314;2023-08-21T05:45:54;4.33;;;3.53;;
24277;SDS011;12394;42.692;23.314;2023-08-21T05:48:19;5.07;;;4.30;;
24277;SDS011;12394;42.692;23.314;2023-08-21T05:50:45;4.20;;;3.37;;
24277;SDS011;12394;42.692;23.314;2023-08-21T05:53:16;4.63;;;3.73;;
24277;SDS011;12394;42.692;23.314;2023-08-21T05:55:41;8.17;;;4.87;;
24277;SDS011;12394;42.692;23.314;2023-08-21T05:58:06;5.27;;;3.97;;
24277;SDS011;12394;42.692;23.314;2023-08-21T06:00:33;3.77;;;2.90;;
24277;SDS011;12394;42.692;23.314;2023-08-21T06:03:00;5.20;;;3.73;;
24277;SDS011;12394;42.692;23.314;2023-08-21T06:05:25;4.03;;;3.10;;
24277;SDS011;12394;42.692;23.314;2023-08-21T06:07:51;3.57;;;3.27;;
24277;SDS011;12394;42.692;23.314;2023-08-21T06:10:17;4.70;;;3.80;;
24277;SDS011;12394;42.692;23.314;2023-08-21T06:12:42;6.37;;;3.83;;
24277;SDS011;12394;42.692;23.314;2023-08-21T06:15:08;6.47;;;3.60;;
24277;SDS011;12394;42.692;23.314;2023-08-21T06:17:34;8.37;;;5.03;;
24277;SDS011;12394;42.692;23.314;2023-08-21T06:20:00;5.03;;;3.67;;
24277;SDS011;12394;42.692;23.314;2023-08-21T06:22:25;4.57;;;3.20;;
24277;SDS011;12394;42.692;23.314;2023-08-21T06:24:51;5.83;;;3.70;;
24277;SDS011;12394;42.692;23.314;2023-08-21T06:27:16;8.57;;;3.30;;
24277;SDS011;12394;42.692;23.314;2023-08-21T06:29:42;3.30;;;3.00;;
24277;SDS011;12394;42.692;23.314;2023-08-21T06:32:07;3.40;;;3.10;;
24277;SDS011;12394;42.692;23.314;2023-08-21T06:34:33;4.00;;;3.33;;
24277;SDS011;12394;42.692;23.314;2023-08-21T06:36:58;4.07;;;3.63;;
24277;SDS011;12394;42.692;23.314;2023-08-21T06:39:25;4.10;;;3.43;;
24277;SDS011;12394;42.692;23.314;2023-08-21T06:41:51;5.57;;;3.27;;
24277;SDS011;12394;42.692;23.314;2023-08-21T06:44:16;3.93;;;3.27;;
24277;SDS011;12394;42.692;23.314;2023-08-21T06:46:41;3.90;;;2.97;;
24277;SDS011;12394;42.692;23.314;2023-08-21T06:49:07;3.93;;;3.37;;
24277;SDS011;12394;42.692;23.314;2023-08-21T06:51:32;3.20;;;2.90;;
24277;SDS011;12394;42.692;23.314;2023-08-21T06:53:58;3.33;;;3.00;;
24277;SDS011;12394;42.692;23.314;2023-08-21T06:56:23;3.30;;;3.00;;
24277;SDS011;12394;42.692;23.314;2023-08-21T06:58:49;6.83;;;3.57;;
24277;SDS011;12394;42.692;23.314;2023-08-21T07:01:15;3.87;;;3.43;;
24277;SDS011;12394;42.692;23.314;2023-08-21T07:03:40;4.47;;;3.20;;
24277;SDS011;12394;42.692;23.314;2023-08-21T07:06:06;5.23;;;3.20;;
24277;SDS011;12394;42.692;23.314;2023-08-21T07:08:31;5.63;;;3.70;;
24277;SDS011;12394;42.692;23.314;2023-08-21T07:10:57;6.00;;;4.53;;
24277;SDS011;12394;42.692;23.314;2023-08-21T07:13:23;3.83;;;3.43;;
24277;SDS011;12394;42.692;23.314;2023-08-21T07:15:48;5.37;;;3.83;;
24277;SDS011;12394;42.692;23.314;2023-08-21T07:18:17;3.60;;;3.20;;
24277;SDS011;12394;42.692;23.314;2023-08-21T07:20:42;5.23;;;4.33;;
24277;SDS011;12394;42.692;23.314;2023-08-21T07:23:08;5.20;;;4.00;;
24277;SDS011;12394;42.692;23.314;2023-08-21T07:25:33;5.00;;;2.97;;
24277;SDS011;12394;42.692;23.314;2023-08-21T07:27:59;3.60;;;3.13;;
24277;SDS011;12394;42.692;23.314;2023-08-21T07:30:24;6.43;;;3.50;;
24277;SDS011;12394;42.692;23.314;2023-08-21T07:32:50;3.40;;;3.10;;
24277;SDS011;12394;42.692;23.314;2023-08-21T07:35:15;7.67;;;3.17;;
24277;SDS011;12394;42.692;23.314;2023-08-21T07:37:44;3.60;;;3.30;;
24277;SDS011;12394;42.692;23.314;2023-08-21T07:40:10;4.90;;;4.10;;
24277;SDS011;12394;42.692;23.314;2023-08-21T07:42:36;4.13;;;3.63;;
24277;SDS011;12394;42.692;23.314;2023-08-21T07:45:02;3.27;;;2.97;;
24277;SDS011;12394;42.692;23.314;2023-08-21T07:47:28;3.50;;;3.20;;
24277;SDS011;12394;42.692;23.314;2023-08-21T07:49:54;3.90;;;3.50;;
24277;SDS011;12394;42.692;23.314;2023-08-21T07:52:20;3.90;;;3.40;;
24277;SDS011;12394;42.692;23.314;2023-08-21T07:54:46;3.55;;;3.25;;
24277;SDS011;12394;42.692;23.314;2023-08-21T07:57:11;5.33;;;3.53;;
24277;SDS011;12394;42.692;23.314;2023-08-21T07:59:37;6.63;;;4.10;;
24277;SDS011;12394;42.692;23.314;2023-08-21T08:02:02;3.53;;;3.05;;
24277;SDS011;12394;42.692;23.314;2023-08-21T08:04:29;4.53;;;3.67;;
24277;SDS011;12394;42.692;23.314;2023-08-21T08:06:55;3.92;;;3.28;;
24277;SDS011;12394;42.692;23.314;2023-08-21T08:09:20;3.40;;;3.10;;
24277;SDS011;12394;42.692;23.314;2023-08-21T08:11:46;3.22;;;2.92;;
24277;SDS011;12394;42.692;23.314;2023-08-21T08:14:11;3.85;;;2.95;;
24277;SDS011;12394;42.692;23.314;2023-08-21T08:16:36;3.53;;;3.22;;
24277;SDS011;12394;42.692;23.314;2023-08-21T08:19:02;2.92;;;2.65;;
24277;SDS011;12394;42.692;23.314;2023-08-21T08:21:27;4.05;;;3.03;;
24277;SDS011;12394;42.692;23.314;2023-08-21T08:23:53;5.03;;;3.47;;
24277;SDS011;12394;42.692;23.314;2023-08-21T08:26:18;5.50;;;3.40;;
24277;SDS011;12394;42.692;23.314;2023-08-21T08:28:44;3.75;;;2.92;;
24277;SDS011;12394;42.692;23.314;2023-08-21T08:31:16;3.58;;;3.13;;
24277;SDS011;12394;42.692;23.314;2023-08-21T08:33:42;3.47;;;3.17;;
24277;SDS011;12394;42.692;23.314;2023-08-21T08:36:08;3.45;;;3.15;;
24277;SDS011;12394;42.692;23.314;2023-08-21T08:38:34;3.20;;;2.90;;
24277;SDS011;12394;42.692;23.314;2023-08-21T08:40:59;2.95;;;2.75;;
24277;SDS011;12394;42.692;23.314;2023-08-21T08:43:27;2.53;;;2.33;;
24277;SDS011;12394;42.692;23.314;2023-08-21T08:45:53;3.40;;;2.95;;
24277;SDS011;12394;42.692;23.314;2023-08-21T08:48:21;2.80;;;2.60;;
24277;SDS011;12394;42.692;23.314;2023-08-21T08:50:47;2.88;;;2.63;;
24277;SDS011;12394;42.692;23.314;2023-08-21T08:53:15;2.83;;;2.63;;
24277;SDS011;12394;42.692;23.314;2023-08-21T08:55:42;2.60;;;2.40;;
24277;SDS011;12394;42.692;23.314;2023-08-21T08:58:08;3.05;;;2.85;;
24277;SDS011;12394;42.692;23.314;2023-08-21T09:00:34;3.55;;;3.15;;
24277;SDS011;12394;42.692;23.314;2023-08-21T09:02:59;5.72;;;3.28;;
24277;SDS011;12394;42.692;23.314;2023-08-21T09:05:25;2.90;;;2.50;;
24277;SDS011;12394;42.692;23.314;2023-08-21T09:08:09;2.90;;;2.70;;
24277;SDS011;12394;42.692;23.314;2023-08-21T09:10:38;4.07;;;3.22;;
24277;SDS011;12394;42.692;23.314;2023-08-21T09:13:08;4.20;;;3.45;;
24277;SDS011;12394;42.692;23.314;2023-08-21T09:15:35;4.20;;;3.53;;
24277;SDS011;12394;42.692;23.314;2023-08-21T09:18:01;4.30;;;3.10;;
24277;SDS011;12394;42.692;23.314;2023-08-21T09:20:27;3.10;;;2.70;;
24277;SDS011;12394;42.692;23.314;2023-08-21T09:22:53;2.58;;;2.38;;
24277;SDS011;12394;42.692;23.314;2023-08-21T09:25:20;3.60;;;2.90;;
24277;SDS011;12394;42.692;23.314;2023-08-21T09:27:46;2.55;;;2.33;;
24277;SDS011;12394;42.692;23.314;2023-08-21T09:30:16;4.05;;;2.58;;
24277;SDS011;12394;42.692;23.314;2023-08-21T09:32:57;3.08;;;2.83;;
24277;SDS011;12394;42.692;23.314;2023-08-21T09:35:26;3.28;;;2.88;;
24277;SDS011;12394;42.692;23.314;2023-08-21T09:37:52;2.67;;;2.47;;
24277;SDS011;12394;42.692;23.314;2023-08-21T09:40:23;2.70;;;2.50;;
24277;SDS011;12394;42.692;23.314;2023-08-21T09:42:52;3.75;;;2.53;;
24277;SDS011;12394;42.692;23.314;2023-08-21T09:45:25;2.75;;;2.50;;
24277;SDS011;12394;42.692;23.314;2023-08-21T09:47:53;3.22;;;2.88;;
24277;SDS011;12394;42.692;23.314;2023-08-21T09:50:19;3.13;;;2.30;;
24277;SDS011;12394;42.692;23.314;2023-08-21T09:52:45;4.05;;;3.65;;
24277;SDS011;12394;42.692;23.314;2023-08-21T09:55:14;2.70;;;2.50;;
24277;SDS011;12394;42.692;23.314;2023-08-21T09:57:40;3.13;;;2.85;;
24277;SDS011;12394;42.692;23.314;2023-08-21T10:00:06;7.35;;;3.22;;
24277;SDS011;12394;42.692;23.314;2023-08-21T10:02:46;3.03;;;2.58;;
24277;SDS011;12394;42.692;23.314;2023-08-21T10:05:18;2.90;;;2.70;;
24277;SDS011;12394;42.692;23.314;2023-08-21T10:07:48;2.53;;;2.28;;
24277;SDS011;12394;42.692;23.314;2023-08-21T10:10:15;3.65;;;2.72;;
24277;SDS011;12394;42.692;23.314;2023-08-21T10:12:42;2.78;;;2.58;;
24277;SDS011;12394;42.692;23.314;2023-08-21T10:15:07;2.55;;;2.35;;
24277;SDS011;12394;42.692;23.314;2023-08-21T10:17:36;2.65;;;2.50;;
24277;SDS011;12394;42.692;23.314;2023-08-21T10:20:05;2.67;;;2.47;;
24277;SDS011;12394;42.692;23.314;2023-08-21T10:22:39;2.50;;;2.30;;
24277;SDS011;12394;42.692;23.314;2023-08-21T10:25:16;2.72;;;2.38;;
24277;SDS011;12394;42.692;23.314;2023-08-21T10:27:45;2.65;;;2.45;;
24277;SDS011;12394;42.692;23.314;2023-08-21T10:30:27;2.58;;;2.38;;
24277;SDS011;12394;42.692;23.314;2023-08-21T10:32:54;2.33;;;2.13;;
24277;SDS011;12394;42.692;23.314;2023-08-21T10:35:21;3.22;;;2.60;;
24277;SDS011;12394;42.692;23.314;2023-08-21T10:41:03;2.25;;;2.05;;
24277;SDS011;12394;42.692;23.314;2023-08-21T10:43:44;2.72;;;2.35;;
24277;SDS011;12394;42.692;23.314;2023-08-21T10:46:10;4.10;;;2.83;;
24277;SDS011;12394;42.692;23.314;2023-08-21T10:48:36;2.63;;;2.42;;
24277;SDS011;12394;42.692;23.314;2023-08-21T10:51:04;5.38;;;4.03;;
24277;SDS011;12394;42.692;23.314;2023-08-21T10:53:31;2.55;;;2.35;;
24277;SDS011;12394;42.692;23.314;2023-08-21T10:56:01;3.45;;;2.58;;
24277;SDS011;12394;42.692;23.314;2023-08-21T10:58:42;2.90;;;2.70;;
24277;SDS011;12394;42.692;23.314;2023-08-21T11:01:07;2.50;;;2.30;;
24277;SDS011;12394;42.692;23.314;2023-08-21T11:03:33;2.95;;;2.67;;
24277;SDS011;12394;42.692;23.314;2023-08-21T11:06:02;4.82;;;2.65;;
24277;SDS011;12394;42.692;23.314;2023-08-21T11:08:29;2.70;;;2.50;;
24277;SDS011;12394;42.692;23.314;2023-08-21T11:10:54;2.60;;;2.40;;
24277;SDS011;12394;42.692;23.314;2023-08-21T11:13:23;2.97;;;2.67;;
24277;SDS011;12394;42.692;23.314;2023-08-21T11:15:49;2.53;;;2.33;;
24277;SDS011;12394;42.692;23.314;2023-08-21T11:18:29;2.70;;;2.50;;
24277;SDS011;12394;42.692;23.314;2023-08-21T11:21:08;3.13;;;2.67;;
24277;SDS011;12394;42.692;23.314;2023-08-21T11:23:35;2.50;;;2.30;;
24277;SDS011;12394;42.692;23.314;2023-08-21T11:26:06;3.70;;;2.92;;
24277;SDS011;12394;42.692;23.314;2023-08-21T11:28:35;3.10;;;2.37;;
24277;SDS011;12394;42.692;23.314;2023-08-21T11:31:01;2.97;;;2.60;;
24277;SDS011;12394;42.692;23.314;2023-08-21T11:33:27;3.30;;;2.67;;
24277;SDS011;12394;42.692;23.314;2023-08-21T11:35:54;2.80;;;2.60;;
24277;SDS011;12394;42.692;23.314;2023-08-21T11:38:23;2.97;;;2.67;;
24277;SDS011;12394;42.692;23.314;2023-08-21T11:40:54;3.57;;;2.07;;
24277;SDS011;12394;42.692;23.314;2023-08-21T11:43:21;3.10;;;2.63;;
24277;SDS011;12394;42.692;23.314;2023-08-21T11:45:48;3.63;;;3.33;;
24277;SDS011;12394;42.692;23.314;2023-08-21T11:48:14;2.53;;;2.23;;
24277;SDS011;12394;42.692;23.314;2023-08-21T11:50:39;5.10;;;2.77;;
24277;SDS011;12394;42.692;23.314;2023-08-21T11:53:05;3.10;;;2.67;;
24277;SDS011;12394;42.692;23.314;2023-08-21T11:55:31;2.67;;;2.47;;
24277;SDS011;12394;42.692;23.314;2023-08-21T11:57:56;2.63;;;2.40;;
24277;SDS011;12394;42.692;23.314;2023-08-21T12:00:26;2.90;;;2.57;;
24277;SDS011;12394;42.692;23.314;2023-08-21T12:03:02;2.87;;;2.40;;
24277;SDS011;12394;42.692;23.314;2023-08-21T12:05:31;2.50;;;2.30;;
24277;SDS011;12394;42.692;23.314;2023-08-21T12:07:57;2.57;;;2.37;;
24277;SDS011;12394;42.692;23.314;2023-08-21T12:10:26;3.67;;;3.17;;
24277;SDS011;12394;42.692;23.314;2023-08-21T12:12:54;3.40;;;2.67;;
24277;SDS011;12394;42.692;23.314;2023-08-21T12:15:20;2.80;;;2.60;;
24277;SDS011;12394;42.692;23.314;2023-08-21T12:17:46;6.30;;;4.87;;
24277;SDS011;12394;42.692;23.314;2023-08-21T12:20:11;3.90;;;2.50;;
24277;SDS011;12394;42.692;23.314;2023-08-21T12:22:37;2.80;;;2.43;;
24277;SDS011;12394;42.692;23.314;2023-08-21T12:25:03;3.77;;;2.40;;
24277;SDS011;12394;42.692;23.314;2023-08-21T12:27:30;2.83;;;2.60;;
24277;SDS011;12394;42.692;23.314;2023-08-21T12:29:56;2.93;;;2.60;;
24277;SDS011;12394;42.692;23.314;2023-08-21T12:32:21;2.77;;;2.57;;
24277;SDS011;12394;42.692;23.314;2023-08-21T12:34:47;3.00;;;2.70;;
24277;SDS011;12394;42.692;23.314;2023-08-21T12:37:12;2.57;;;2.37;;
24277;SDS011;12394;42.692;23.314;2023-08-21T12:39:38;3.20;;;2.90;;
24277;SDS011;12394;42.692;23.314;2023-08-21T12:42:03;2.70;;;2.40;;
24277;SDS011;12394;42.692;23.314;2023-08-21T12:44:29;3.00;;;2.70;;
24277;SDS011;12394;42.692;23.314;2023-08-21T12:46:55;5.13;;;2.50;;
24277;SDS011;12394;42.692;23.314;2023-08-21T12:49:20;2.90;;;2.50;;
24277;SDS011;12394;42.692;23.314;2023-08-21T12:51:47;3.53;;;2.83;;
24277;SDS011;12394;42.692;23.314;2023-08-21T12:54:12;3.10;;;2.57;;
24277;SDS011;12394;42.692;23.314;2023-08-21T12:56:37;2.20;;;2.03;;
24277;SDS011;12394;42.692;23.314;2023-08-21T12:59:04;2.80;;;2.47;;
24277;SDS011;12394;42.692;23.314;2023-08-21T13:01:30;3.20;;;2.40;;
24277;SDS011;12394;42.692;23.314;2023-08-21T13:03:58;3.63;;;3.30;;
24277;SDS011;12394;42.692;23.314;2023-08-21T13:06:24;3.60;;;2.43;;
24277;SDS011;12394;42.692;23.314;2023-08-21T13:08:49;3.63;;;3.17;;
24277;SDS011;12394;42.692;23.314;2023-08-21T13:11:15;2.67;;;2.23;;
24277;SDS011;12394;42.692;23.314;2023-08-21T13:13:40;4.13;;;2.53;;
24277;SDS011;12394;42.692;23.314;2023-08-21T13:16:06;2.80;;;2.60;;
24277;SDS011;12394;42.692;23.314;2023-08-21T13:18:31;4.50;;;2.90;;
24277;SDS011;12394;42.692;23.314;2023-08-21T13:20:57;2.90;;;2.60;;
24277;SDS011;12394;42.692;23.314;2023-08-21T13:23:22;5.07;;;3.00;;
24277;SDS011;12394;42.692;23.314;2023-08-21T13:25:48;2.60;;;2.40;;
24277;SDS011;12394;42.692;23.314;2023-08-21T13:28:14;2.40;;;2.20;;
24277;SDS011;12394;42.692;23.314;2023-08-21T13:30:39;3.20;;;2.80;;
24277;SDS011;12394;42.692;23.314;2023-08-21T13:33:05;2.80;;;2.50;;
24277;SDS011;12394;42.692;23.314;2023-08-21T13:35:31;3.97;;;2.40;;
24277;SDS011;12394;42.692;23.314;2023-08-21T13:37:57;2.50;;;2.30;;
24277;SDS011;12394;42.692;23.314;2023-08-21T13:40:23;2.63;;;2.40;;
24277;SDS011;12394;42.692;23.314;2023-08-21T13:42:49;5.33;;;2.73;;
24277;SDS011;12394;42.692;23.314;2023-08-21T13:45:16;3.87;;;3.07;;
24277;SDS011;12394;42.692;23.314;2023-08-21T13:47:46;3.10;;;2.67;;
24277;SDS011;12394;42.692;23.314;2023-08-21T13:50:13;2.93;;;2.63;;
24277;SDS011;12394;42.692;23.314;2023-08-21T13:52:40;2.50;;;2.30;;
24277;SDS011;12394;42.692;23.314;2023-08-21T13:55:07;2.00;;;1.80;;
24277;SDS011;12394;42.692;23.314;2023-08-21T13:57:33;2.70;;;2.50;;
24277;SDS011;12394;42.692;23.314;2023-08-21T14:00:00;3.00;;;2.60;;
24277;SDS011;12394;42.692;23.314;2023-08-21T14:02:26;4.87;;;2.57;;
24277;SDS011;12394;42.692;23.314;2023-08-21T14:04:51;3.43;;;2.60;;
24277;SDS011;12394;42.692;23.314;2023-08-21T14:07:17;3.30;;;3.00;;
24277;SDS011;12394;42.692;23.314;2023-08-21T14:09:42;2.80;;;2.60;;
24277;SDS011;12394;42.692;23.314;2023-08-21T14:12:08;2.67;;;2.47;;
24277;SDS011;12394;42.692;23.314;2023-08-21T14:14:36;2.53;;;2.33;;
24277;SDS011;12394;42.692;23.314;2023-08-21T14:17:02;3.13;;;2.83;;
24277;SDS011;12394;42.692;23.314;2023-08-21T14:19:28;2.47;;;2.27;;
24277;SDS011;12394;42.692;23.314;2023-08-21T14:21:54;3.10;;;2.83;;
24277;SDS011;12394;42.692;23.314;2023-08-21T14:24:19;2.57;;;2.37;;
24277;SDS011;12394;42.692;23.314;2023-08-21T14:26:45;3.87;;;2.93;;
24277;SDS011;12394;42.692;23.314;2023-08-21T14:29:11;2.90;;;2.60;;
24277;SDS011;12394;42.692;23.314;2023-08-21T14:31:36;2.63;;;2.43;;
24277;SDS011;12394;42.692;23.314;2023-08-21T14:34:02;2.77;;;2.50;;
24277;SDS011;12394;42.692;23.314;2023-08-21T14:36:27;2.97;;;2.60;;
24277;SDS011;12394;42.692;23.314;2023-08-21T14:38:53;3.17;;;2.77;;
24277;SDS011;12394;42.692;23.314;2023-08-21T14:41:18;3.43;;;2.63;;